createdAt,value
2019-05-29T00:09:48.954Z,1.73
2019-05-29T00:19:50.928Z,1.73
2019-05-29T00:29:53.001Z,1.57
2019-05-29T00:39:54.955Z,1.77
2019-05-29T00:49:56.923Z,1.87
2019-05-29T00:59:59.125Z,2.03
2019-05-29T01:10:01.136Z,2.00
2019-05-29T01:20:04.023Z,1.90
2019-05-29T01:30:06.604Z,2.00
2019-05-29T01:40:19.102Z,1.82
2019-05-29T01:50:12.747Z,1.85
2019-05-29T02:00:15.689Z,2.08
2019-05-29T02:10:18.278Z,1.82
2019-05-29T02:20:21.151Z,1.90
2019-05-29T02:30:27.757Z,2.20
2019-05-29T02:40:29.462Z,2.72
2019-05-29T02:50:31.404Z,2.55
2019-05-29T03:00:53.405Z,2.73
2019-05-29T03:10:55.709Z,2.60
2019-05-29T03:20:57.787Z,2.65
2019-05-29T03:30:59.824Z,2.87
2019-05-29T03:41:01.816Z,3.10
2019-05-29T03:51:03.766Z,3.33
2019-05-29T04:01:05.705Z,3.33
2019-05-29T04:11:07.748Z,2.90
2019-05-29T04:21:10.342Z,3.33
2019-05-29T04:31:12.309Z,3.90
2019-05-29T04:41:14.269Z,4.43
2019-05-29T04:51:16.222Z,3.73
2019-05-29T05:01:18.325Z,3.70
2019-05-29T05:11:20.395Z,4.33
2019-05-29T05:21:22.427Z,4.77
2019-05-29T05:31:24.419Z,4.67
2019-05-29T05:41:26.392Z,4.37
2019-05-29T05:51:28.685Z,4.17
2019-05-29T06:01:31.738Z,4.97
2019-05-29T06:11:34.193Z,4.80
2019-05-29T06:21:36.732Z,4.03
2019-05-29T06:31:39.377Z,4.12
2019-05-29T06:41:42.026Z,3.60
2019-05-29T07:01:45.515Z,2.85
2019-05-29T07:11:47.614Z,3.17
2019-05-29T07:21:49.721Z,3.13
2019-05-29T07:31:51.794Z,2.27
2019-05-29T07:41:53.722Z,2.03
2019-05-29T07:51:55.712Z,2.47
2019-05-29T08:01:57.666Z,2.33
2019-05-29T08:11:59.823Z,2.10
2019-05-29T08:22:01.835Z,2.40
2019-05-29T08:32:04.311Z,2.40
2019-05-29T08:42:22.472Z,1.92
2019-05-29T08:52:12.262Z,1.50
2019-05-29T09:02:14.511Z,2.00
2019-05-29T09:12:16.622Z,1.80
2019-05-29T09:22:18.808Z,2.27
2019-05-29T09:32:46.478Z,1.65
2019-05-29T09:42:25.470Z,1.70
2019-05-29T09:52:30.669Z,1.57
2019-05-29T10:02:31.330Z,1.75
2019-05-29T10:12:33.352Z,1.37
2019-05-29T10:22:35.711Z,1.40
2019-05-29T10:32:37.711Z,1.52
2019-05-29T10:42:39.757Z,1.87
2019-05-29T10:52:41.742Z,0.82
2019-05-29T11:02:45.917Z,1.65
2019-05-29T11:12:48.417Z,1.82
2019-05-29T11:22:51.542Z,1.70
2019-05-29T11:32:56.544Z,1.47
2019-05-29T11:42:59.044Z,1.30
2019-05-29T11:53:01.127Z,0.78
2019-05-29T12:03:04.648Z,0.70
2019-05-29T12:13:06.734Z,0.78
2019-05-29T12:23:24.121Z,0.55
2019-05-29T12:33:12.595Z,0.50
2019-05-29T12:43:26.571Z,0.40
2019-05-29T12:53:29.796Z,0.62
2019-05-29T13:03:22.271Z,0.40
2019-05-29T13:13:24.407Z,0.60
2019-05-29T13:23:26.429Z,0.40
2019-05-29T13:33:40.528Z,0.60
2019-05-29T13:43:42.573Z,1.32
2019-05-29T13:54:01.679Z,1.05
2019-05-29T14:03:50.637Z,1.37
2019-05-29T14:13:52.305Z,1.00
2019-05-29T14:23:54.331Z,0.98
2019-05-29T14:33:56.319Z,0.80
2019-05-29T14:43:58.347Z,0.78
2019-05-29T14:54:00.384Z,0.82
2019-05-29T15:04:03.516Z,0.88
2019-05-29T15:14:06.124Z,1.07
2019-05-29T15:24:09.481Z,1.57
2019-05-29T15:34:12.469Z,0.60
2019-05-29T15:44:15.068Z,0.78
2019-05-29T15:54:17.621Z,0.60
2019-05-29T16:04:19.673Z,0.80
2019-05-29T16:14:21.731Z,0.60
2019-05-29T16:24:23.799Z,0.80
2019-05-29T16:34:25.991Z,0.80
2019-05-29T16:44:29.571Z,0.80
2019-05-29T16:54:31.789Z,0.62
2019-05-29T17:04:33.821Z,7.28
2019-05-29T17:14:36.174Z,3.90
2019-05-29T17:24:38.207Z,0.90
2019-05-29T17:34:40.179Z,1.10
2019-05-29T17:44:42.129Z,1.00
2019-05-29T17:54:44.285Z,1.00
2019-05-29T18:04:46.370Z,1.12
2019-05-29T18:14:48.318Z,1.07
2019-05-29T18:34:56.150Z,1.52
2019-05-29T18:44:55.753Z,2.22
2019-05-29T19:04:59.287Z,1.42
2019-05-29T19:25:03.711Z,1.87
2019-05-29T19:35:06.256Z,1.20
2019-05-29T19:45:09.463Z,1.20
2019-05-29T19:55:11.636Z,1.47
2019-05-29T20:15:15.180Z,1.42
2019-05-29T20:25:17.266Z,2.00
2019-05-29T20:35:19.296Z,1.57
2019-05-29T20:45:21.280Z,1.55
2019-05-29T20:55:23.314Z,1.70
2019-05-29T21:05:25.296Z,1.52
2019-05-29T21:15:27.372Z,1.77
2019-05-29T21:25:30.864Z,1.98
2019-05-29T21:35:32.875Z,2.10
2019-05-29T21:45:34.843Z,2.67
2019-05-29T21:55:37.553Z,2.20
2019-05-29T22:05:40.556Z,2.50
2019-05-29T22:15:42.681Z,2.10
2019-05-29T22:25:44.678Z,2.55
2019-05-29T22:35:46.655Z,2.43
2019-05-29T22:45:48.814Z,2.97
2019-05-29T22:55:51.612Z,2.47
2019-05-29T23:05:54.204Z,2.83
2019-05-29T23:15:56.650Z,3.45
2019-05-29T23:36:01.224Z,3.10
2019-05-29T23:46:04.001Z,2.77
2019-05-29T23:56:06.079Z,2.95
